createdAt,value
2023-04-17T00:02:25.662Z,99.90
2023-04-17T00:04:55.238Z,99.90
2023-04-17T00:07:24.216Z,99.90
2023-04-17T00:09:52.419Z,99.90
2023-04-17T00:12:22.089Z,99.90
2023-04-17T00:14:50.285Z,99.90
2023-04-17T00:20:07.850Z,1.00
2023-04-17T00:22:37.055Z,99.90
2023-04-17T00:25:05.947Z,99.90
2023-04-17T00:27:38.668Z,99.90
2023-04-17T00:30:08.179Z,99.90
2023-04-17T00:32:36.982Z,99.90
2023-04-17T00:35:05.697Z,99.90
2023-04-17T00:37:35.654Z,99.90
2023-04-17T00:40:04.252Z,99.90
2023-04-17T00:42:32.683Z,99.90
2023-04-17T00:45:02.999Z,99.90
2023-04-17T00:47:31.785Z,99.90
2023-04-17T00:50:00.232Z,99.90
2023-04-17T00:52:30.384Z,98.20
2023-04-17T00:55:00.814Z,58.40
2023-04-17T00:57:30.092Z,20.50
2023-04-17T00:59:58.913Z,91.10
2023-04-17T01:02:28.852Z,99.90
2023-04-17T01:04:57.299Z,99.90
2023-04-17T01:07:26.283Z,99.90
2023-04-17T01:09:55.261Z,99.90
2023-04-17T01:12:25.030Z,99.90
2023-04-17T01:14:54.025Z,99.90
2023-04-17T01:17:22.997Z,99.90
2023-04-17T01:19:52.762Z,99.90
2023-04-17T01:22:21.575Z,99.90
2023-04-17T01:24:55.324Z,92.50
2023-04-17T01:27:25.155Z,99.90
2023-04-17T01:29:53.199Z,99.90
2023-04-17T01:32:21.764Z,99.90
2023-04-17T01:34:51.104Z,99.90
2023-04-17T01:37:19.984Z,99.90
2023-04-17T01:39:48.581Z,99.90
2023-04-17T01:42:18.105Z,99.90
2023-04-17T01:44:46.360Z,99.90
2023-04-17T01:47:14.715Z,99.90
2023-04-17T01:49:42.786Z,99.90
2023-04-17T01:52:11.012Z,99.90
2023-04-17T01:54:39.413Z,99.90
2023-04-17T01:57:07.764Z,99.90
2023-04-17T01:59:37.264Z,99.90
2023-04-17T02:02:05.870Z,99.90
2023-04-17T02:04:36.186Z,99.90
2023-04-17T02:07:04.348Z,99.90
2023-04-17T02:09:32.952Z,99.90
2023-04-17T02:12:01.752Z,99.90
2023-04-17T02:14:31.755Z,99.90
2023-04-17T02:17:01.561Z,99.90
2023-04-17T02:19:34.091Z,99.90
2023-04-17T02:22:04.347Z,99.90
2023-04-17T02:24:32.778Z,99.90
2023-04-17T02:27:02.759Z,99.90
2023-04-17T02:29:31.178Z,99.90
2023-04-17T02:32:00.696Z,99.90
2023-04-17T02:34:29.099Z,99.90
2023-04-17T02:36:59.326Z,99.90
2023-04-17T02:39:27.505Z,99.90
2023-04-17T02:41:55.809Z,99.90
2023-04-17T02:44:23.836Z,1.00
2023-04-17T02:46:52.034Z,1.00
2023-04-17T02:49:21.485Z,1.00
2023-04-17T02:51:49.565Z,1.00
2023-04-17T02:54:17.858Z,99.90
2023-04-17T02:56:46.556Z,1.00
2023-04-17T02:59:15.046Z,1.00
2023-04-17T03:01:45.814Z,1.00
2023-04-17T03:04:15.684Z,99.90
2023-04-17T03:06:45.381Z,99.90
2023-04-17T03:09:15.567Z,99.90
2023-04-17T03:11:43.647Z,99.90
2023-04-17T03:14:11.640Z,99.90
2023-04-17T03:16:39.743Z,99.90
2023-04-17T03:19:07.845Z,99.90
2023-04-17T03:21:36.301Z,99.90
2023-04-17T03:24:06.699Z,99.90
2023-04-17T03:26:34.838Z,99.90
2023-04-17T03:29:07.953Z,99.90
2023-04-17T03:31:36.026Z,99.90
2023-04-17T03:34:04.353Z,99.90
2023-04-17T03:36:32.613Z,99.90
2023-04-17T03:39:00.666Z,99.90
2023-04-17T03:41:30.143Z,99.90
2023-04-17T03:43:58.588Z,99.90
2023-04-17T03:46:26.857Z,99.90
2023-04-17T03:48:55.747Z,99.90
2023-04-17T03:51:24.694Z,99.90
2023-04-17T03:53:55.301Z,1.00
2023-04-17T03:56:24.810Z,1.00
2023-04-17T03:58:55.875Z,1.00
2023-04-17T04:01:28.563Z,1.00
2023-04-17T04:04:19.353Z,1.00
2023-04-17T04:06:49.510Z,1.00
2023-04-17T04:09:21.056Z,1.00
2023-04-17T04:11:49.225Z,1.00
2023-04-17T04:14:18.727Z,1.00
2023-04-17T04:16:49.409Z,1.00
2023-04-17T04:19:17.488Z,1.00
2023-04-17T04:24:15.768Z,66.10
2023-04-17T04:26:47.465Z,99.90
2023-04-17T04:29:15.672Z,99.90
2023-04-17T04:31:51.816Z,99.90
2023-04-17T04:34:25.893Z,99.90
2023-04-17T04:36:54.218Z,99.90
2023-04-17T04:39:33.660Z,1.00
2023-04-17T04:42:06.293Z,1.00
2023-04-17T04:44:48.539Z,1.00
2023-04-17T04:47:20.443Z,1.00
2023-04-17T04:49:50.996Z,1.00
2023-04-17T04:52:22.049Z,1.00
2023-04-17T04:54:52.513Z,1.00
2023-04-17T04:59:53.173Z,1.00
2023-04-17T05:02:49.632Z,1.00
2023-04-17T05:05:21.953Z,1.00
2023-04-17T05:07:50.157Z,1.00
2023-04-17T05:10:19.314Z,1.00
2023-04-17T05:12:52.188Z,1.00
2023-04-17T05:15:20.526Z,99.90
2023-04-17T05:17:50.736Z,99.90
2023-04-17T05:20:19.330Z,99.90
2023-04-17T05:22:51.928Z,1.00
2023-04-17T05:25:20.872Z,1.00
2023-04-17T05:27:49.136Z,1.00
2023-04-17T05:30:18.184Z,26.00
2023-04-17T05:32:51.950Z,1.00
2023-04-17T05:35:44.015Z,1.00
2023-04-17T05:38:12.044Z,99.90
2023-04-17T05:40:40.250Z,99.90
2023-04-17T05:43:09.391Z,99.90
2023-04-17T05:45:38.317Z,99.90
2023-04-17T05:48:11.793Z,99.90
2023-04-17T05:50:40.181Z,99.90
2023-04-17T05:53:09.287Z,1.00
2023-04-17T05:55:44.481Z,1.00
2023-04-17T06:00:47.580Z,1.00
2023-04-17T06:03:19.919Z,1.00
2023-04-17T06:05:53.167Z,99.90
2023-04-17T06:08:21.571Z,1.00
2023-04-17T06:10:50.780Z,1.00
2023-04-17T06:13:19.109Z,1.00
2023-04-17T06:15:51.412Z,1.00
2023-04-17T06:18:21.255Z,1.00
2023-04-17T06:20:49.407Z,1.00
2023-04-17T06:23:17.416Z,1.00
2023-04-17T06:25:45.697Z,1.00
2023-04-17T06:28:13.968Z,99.90
2023-04-17T06:30:42.119Z,99.90
2023-04-17T06:33:10.455Z,99.90
2023-04-17T06:35:40.896Z,99.90
2023-04-17T06:38:20.017Z,99.90
2023-04-17T06:40:48.946Z,99.90
2023-04-17T06:43:18.304Z,78.30
2023-04-17T06:45:46.513Z,11.20
2023-04-17T06:48:14.601Z,53.50
2023-04-17T06:50:44.003Z,14.80
2023-04-17T06:53:14.269Z,65.90
2023-04-17T06:55:42.289Z,99.90
2023-04-17T06:58:10.447Z,99.90
2023-04-17T07:00:38.550Z,99.90
2023-04-17T07:03:06.990Z,71.80
2023-04-17T07:05:35.300Z,91.50
2023-04-17T07:08:04.933Z,99.90
2023-04-17T07:10:32.975Z,99.90
2023-04-17T07:13:01.826Z,62.00
2023-04-17T07:15:31.276Z,3.40
2023-04-17T07:18:00.545Z,1.00
2023-04-17T07:20:28.790Z,1.00
2023-04-17T07:22:57.344Z,1.00
2023-04-17T07:25:27.125Z,1.00
2023-04-17T07:27:56.926Z,1.00
2023-04-17T07:30:25.315Z,1.00
2023-04-17T07:32:53.593Z,1.00
2023-04-17T07:35:23.754Z,1.00
2023-04-17T07:37:51.956Z,1.00
2023-04-17T07:40:20.218Z,1.00
2023-04-17T07:42:49.587Z,1.00
2023-04-17T07:45:17.990Z,1.00
2023-04-17T07:47:47.538Z,1.00
2023-04-17T07:50:15.873Z,1.00
2023-04-17T07:52:43.967Z,1.00
2023-04-17T07:55:12.032Z,1.00
2023-04-17T07:57:42.878Z,1.00
2023-04-17T08:00:14.818Z,1.00
2023-04-17T08:02:43.834Z,1.00
2023-04-17T08:05:12.484Z,1.00
2023-04-17T08:07:41.210Z,1.00
2023-04-17T08:10:10.195Z,1.00
2023-04-17T08:12:38.542Z,1.00
2023-04-17T08:15:07.570Z,1.00
2023-04-17T08:17:37.084Z,1.00
2023-04-17T08:20:11.227Z,1.00
2023-04-17T08:22:43.392Z,1.00
2023-04-17T08:25:12.429Z,99.90
2023-04-17T08:27:42.023Z,99.90
2023-04-17T08:30:13.732Z,99.90
2023-04-17T08:32:45.998Z,99.90
2023-04-17T08:35:15.830Z,99.90
2023-04-17T08:37:46.703Z,99.90
2023-04-17T08:40:17.027Z,99.90
2023-04-17T08:42:47.718Z,70.20
2023-04-17T08:45:16.138Z,99.90
2023-04-17T08:47:45.656Z,1.00
2023-04-17T08:50:15.757Z,1.00
2023-04-17T08:52:45.260Z,1.00
2023-04-17T08:55:15.065Z,1.00
2023-04-17T08:57:57.113Z,1.00
2023-04-17T09:00:27.199Z,1.00
2023-04-17T09:02:58.170Z,1.00
2023-04-17T09:05:30.155Z,1.00
2023-04-17T09:08:12.649Z,1.00
2023-04-17T09:10:42.442Z,46.60
2023-04-17T09:13:12.289Z,1.00
2023-04-17T09:15:40.397Z,1.00
2023-04-17T09:18:25.875Z,1.00
2023-04-17T09:20:54.137Z,1.00
2023-04-17T09:23:22.832Z,1.00
2023-04-17T09:26:07.441Z,1.00
2023-04-17T09:28:36.839Z,1.00
2023-04-17T09:31:06.568Z,1.00
2023-04-17T09:33:36.022Z,1.00
2023-04-17T09:36:22.862Z,1.00
2023-04-17T09:38:51.588Z,1.00
2023-04-17T09:41:27.117Z,1.00
2023-04-17T09:43:56.026Z,1.00
2023-04-17T09:46:39.117Z,1.00
2023-04-17T09:49:12.142Z,1.00
2023-04-17T09:51:40.799Z,1.00
2023-04-17T09:54:12.249Z,1.00
2023-04-17T09:56:41.200Z,1.00
2023-04-17T09:59:09.885Z,1.00
2023-04-17T10:01:40.818Z,1.00
2023-04-17T10:04:10.733Z,1.00
2023-04-17T10:06:39.077Z,1.00
2023-04-17T10:09:07.960Z,1.00
2023-04-17T10:11:39.292Z,1.00
2023-04-17T10:14:14.572Z,1.00
2023-04-17T10:16:43.768Z,1.00
2023-04-17T10:19:32.874Z,1.00
2023-04-17T10:22:34.064Z,1.00
2023-04-17T10:25:22.180Z,1.00
2023-04-17T10:27:58.315Z,1.00
2023-04-17T10:30:47.420Z,1.00
2023-04-17T10:33:28.499Z,1.00
2023-04-17T10:35:57.904Z,99.90
2023-04-17T10:38:38.571Z,99.90
2023-04-17T10:41:11.119Z,99.90
2023-04-17T10:43:45.138Z,99.90
2023-04-17T10:46:14.268Z,99.90
2023-04-17T10:48:49.411Z,99.90
2023-04-17T10:51:44.568Z,99.90
2023-04-17T10:54:15.387Z,99.90
2023-04-17T10:56:48.323Z,99.90
2023-04-17T10:59:17.350Z,99.90
2023-04-17T11:02:01.506Z,99.90
2023-04-17T11:04:31.902Z,99.90
2023-04-17T11:07:01.875Z,99.90
2023-04-17T11:09:30.848Z,99.90
2023-04-17T11:12:01.505Z,99.90
2023-04-17T11:14:30.386Z,99.90
2023-04-17T11:16:58.623Z,99.90
2023-04-17T11:19:27.097Z,99.90
2023-04-17T11:21:58.651Z,99.90
2023-04-17T11:24:29.547Z,99.90
2023-04-17T11:26:59.573Z,99.90
2023-04-17T11:29:28.161Z,99.90
2023-04-17T11:31:57.386Z,99.90
2023-04-17T11:34:27.114Z,99.90
2023-04-17T11:36:57.402Z,99.90
2023-04-17T11:39:29.682Z,99.90
2023-04-17T11:41:58.016Z,99.90
2023-04-17T11:44:26.941Z,99.90
2023-04-17T11:46:56.341Z,99.90
2023-04-17T11:49:28.203Z,99.90
2023-04-17T11:52:00.123Z,99.90
2023-04-17T11:54:30.200Z,99.90
2023-04-17T11:57:02.458Z,99.90
2023-04-17T11:59:32.632Z,99.90
2023-04-17T12:02:02.039Z,99.90
2023-04-17T12:04:33.897Z,99.90
2023-04-17T12:07:02.763Z,99.90
2023-04-17T12:09:32.683Z,99.90
2023-04-17T12:12:01.316Z,99.90
2023-04-17T12:14:29.504Z,99.90
2023-04-17T12:16:57.481Z,99.90
2023-04-17T12:19:27.239Z,99.90
2023-04-17T12:21:55.682Z,99.90
2023-04-17T12:24:24.972Z,99.90
2023-04-17T12:26:54.840Z,99.90
2023-04-17T12:29:36.158Z,92.90
2023-04-17T12:32:11.392Z,92.30
2023-04-17T12:34:39.541Z,61.20
2023-04-17T12:37:07.634Z,51.20
2023-04-17T12:39:35.745Z,31.20
2023-04-17T12:42:05.599Z,18.60
2023-04-17T12:44:33.704Z,1.00
2023-04-17T12:47:01.771Z,10.20
2023-04-17T12:49:29.825Z,3.60
2023-04-17T12:51:58.091Z,1.00
2023-04-17T12:54:26.582Z,1.00
2023-04-17T12:56:55.917Z,3.20
2023-04-17T12:59:25.307Z,9.30
2023-04-17T13:01:53.371Z,11.70
2023-04-17T13:04:21.743Z,6.20
2023-04-17T13:06:50.043Z,17.90
2023-04-17T13:09:18.093Z,15.00
2023-04-17T13:14:15.271Z,1.00
2023-04-17T13:16:45.618Z,1.00
2023-04-17T13:19:13.988Z,1.00
2023-04-17T13:21:42.260Z,99.90
2023-04-17T13:29:11.507Z,1.00
2023-04-17T13:31:39.793Z,1.00
2023-04-17T13:34:10.836Z,1.00
2023-04-17T13:36:38.955Z,1.00
2023-04-17T13:39:07.204Z,1.00
2023-04-17T13:41:35.456Z,1.00
2023-04-17T13:44:03.612Z,1.00
2023-04-17T13:46:32.973Z,1.00
2023-04-17T13:49:01.087Z,1.00
2023-04-17T13:51:31.989Z,1.00
2023-04-17T13:54:00.112Z,1.00
2023-04-17T13:56:28.490Z,1.00
2023-04-17T13:58:57.473Z,1.00
2023-04-17T14:01:25.614Z,1.00
2023-04-17T14:03:54.067Z,1.00
2023-04-17T14:06:22.280Z,1.00
2023-04-17T14:08:51.648Z,1.00
2023-04-17T14:11:19.680Z,1.00
2023-04-17T14:13:47.742Z,1.00
2023-04-17T14:16:16.127Z,1.00
2023-04-17T14:18:44.280Z,1.00
2023-04-17T14:21:12.357Z,1.00
2023-04-17T14:23:40.378Z,1.00
2023-04-17T14:26:10.014Z,1.00
2023-04-17T14:28:38.406Z,1.00
2023-04-17T14:31:06.716Z,1.00
2023-04-17T14:33:34.854Z,1.00
2023-04-17T14:36:05.206Z,1.00
2023-04-17T14:38:34.602Z,1.00
2023-04-17T14:41:02.653Z,1.00
2023-04-17T14:43:32.099Z,1.00
2023-04-17T14:46:00.189Z,1.00
2023-04-17T14:48:29.742Z,1.00
2023-04-17T14:50:59.917Z,1.00
2023-04-17T14:53:27.953Z,1.00
2023-04-17T14:55:56.122Z,1.00
2023-04-17T14:58:24.132Z,1.00
2023-04-17T15:00:53.528Z,1.00
2023-04-17T15:03:21.708Z,1.00
2023-04-17T15:05:50.117Z,1.00
2023-04-17T15:08:18.094Z,1.00
2023-04-17T15:10:51.323Z,1.00
2023-04-17T15:13:19.947Z,1.00
2023-04-17T15:15:48.028Z,1.00
2023-04-17T15:18:17.455Z,1.00
2023-04-17T15:20:46.239Z,1.00
2023-04-17T15:23:15.620Z,1.00
2023-04-17T15:25:43.717Z,1.00
2023-04-17T15:28:12.374Z,1.00
2023-04-17T15:30:40.452Z,1.00
2023-04-17T15:33:10.251Z,1.00
2023-04-17T15:35:39.994Z,1.00
2023-04-17T15:38:08.409Z,1.00
2023-04-17T15:40:36.417Z,1.00
2023-04-17T15:43:04.505Z,1.00
2023-04-17T15:45:32.507Z,1.00
2023-04-17T15:48:01.678Z,1.00
2023-04-17T15:50:30.234Z,1.00
2023-04-17T15:52:59.621Z,1.00
2023-04-17T15:55:27.686Z,1.00
2023-04-17T15:57:56.116Z,1.00
2023-04-17T16:00:24.209Z,1.00
2023-04-17T16:02:52.924Z,1.00
2023-04-17T16:05:21.399Z,1.00
2023-04-17T16:07:49.500Z,1.00
2023-04-17T16:10:19.367Z,1.00
2023-04-17T16:12:47.836Z,1.00
2023-04-17T16:15:17.055Z,1.00
2023-04-17T16:17:48.380Z,1.00
2023-04-17T16:20:16.844Z,1.00
2023-04-17T16:22:45.045Z,1.00
2023-04-17T16:25:13.139Z,1.00
2023-04-17T16:27:42.567Z,1.00
2023-04-17T16:30:11.535Z,1.00
2023-04-17T16:32:39.736Z,1.00
2023-04-17T16:35:08.581Z,1.00
2023-04-17T16:37:36.716Z,1.00
2023-04-17T16:40:05.807Z,1.00
2023-04-17T16:42:34.043Z,1.00
2023-04-17T16:45:03.873Z,1.00
2023-04-17T16:47:32.885Z,1.00
2023-04-17T16:50:01.054Z,1.00
2023-04-17T16:52:29.582Z,1.00
2023-04-17T16:54:57.779Z,25.20
2023-04-17T16:57:26.046Z,99.90
2023-04-17T16:59:54.188Z,99.90
2023-04-17T17:02:23.825Z,99.90
2023-04-17T17:04:52.116Z,99.90
2023-04-17T17:07:20.458Z,99.90
2023-04-17T17:09:48.816Z,99.90
2023-04-17T17:12:16.816Z,99.90
2023-04-17T17:14:45.040Z,99.90
2023-04-17T17:17:13.114Z,99.90
2023-04-17T17:19:42.524Z,99.90
2023-04-17T17:22:10.739Z,1.00
2023-04-17T17:24:39.727Z,1.00
2023-04-17T17:27:07.711Z,99.90
2023-04-17T17:29:35.743Z,99.90
2023-04-17T17:32:03.844Z,1.00
2023-04-17T17:34:32.528Z,1.00
2023-04-17T17:37:02.074Z,1.00
2023-04-17T17:39:30.161Z,1.00
2023-04-17T17:41:58.206Z,1.00
2023-04-17T17:44:26.207Z,1.00
2023-04-17T17:46:54.314Z,1.00
2023-04-17T17:49:22.284Z,1.00
2023-04-17T17:51:50.315Z,1.00
2023-04-17T17:54:19.893Z,1.00
2023-04-17T17:56:48.029Z,1.00
2023-04-17T17:59:16.110Z,1.00
2023-04-17T18:01:44.217Z,1.00
2023-04-17T18:04:12.702Z,28.70
2023-04-17T18:06:41.174Z,99.90
2023-04-17T18:09:09.163Z,99.90
2023-04-17T18:11:39.318Z,99.90
2023-04-17T18:14:07.659Z,99.90
2023-04-17T18:16:37.101Z,99.90
2023-04-17T18:19:05.178Z,73.00
2023-04-17T18:21:33.775Z,43.60
2023-04-17T18:24:02.822Z,99.90
2023-04-17T18:26:30.943Z,99.90
2023-04-17T18:29:00.386Z,99.90
2023-04-17T18:31:28.530Z,99.90
2023-04-17T18:33:56.641Z,99.90
2023-04-17T18:36:24.663Z,99.90
2023-04-17T18:38:52.826Z,99.90
2023-04-17T18:41:21.467Z,99.90
2023-04-17T18:43:49.492Z,99.90
2023-04-17T18:46:19.177Z,99.90
2023-04-17T18:48:47.217Z,99.90
2023-04-17T18:51:15.634Z,99.90
2023-04-17T18:53:43.761Z,99.90
2023-04-17T18:56:13.746Z,99.90
2023-04-17T18:58:41.859Z,99.90
2023-04-17T19:01:10.623Z,1.00
2023-04-17T19:03:40.735Z,1.00
2023-04-17T19:06:08.804Z,1.00
2023-04-17T19:08:39.413Z,1.00
2023-04-17T19:11:08.620Z,1.00
2023-04-17T19:13:36.751Z,1.00
2023-04-17T19:16:04.836Z,1.00
2023-04-17T19:18:33.026Z,99.90
2023-04-17T19:21:02.872Z,99.90
2023-04-17T19:23:31.129Z,99.90
2023-04-17T19:25:59.312Z,99.90
2023-04-17T19:28:28.432Z,99.90
2023-04-17T19:30:57.808Z,99.90
2023-04-17T19:33:25.895Z,99.90
2023-04-17T19:35:54.065Z,1.00
2023-04-17T19:38:23.529Z,1.00
2023-04-17T19:41:14.714Z,1.00
2023-04-17T19:43:43.100Z,1.00
2023-04-17T19:46:11.298Z,1.00
2023-04-17T19:48:39.536Z,1.00
2023-04-17T19:51:08.091Z,1.00
2023-04-17T19:53:38.460Z,1.00
2023-04-17T19:56:08.622Z,1.00
2023-04-17T19:58:37.226Z,1.00
2023-04-17T20:01:05.626Z,1.00
2023-04-17T20:03:34.168Z,1.00
2023-04-17T20:06:03.420Z,1.00
2023-04-17T20:08:31.577Z,1.00
2023-04-17T20:11:01.267Z,1.00
2023-04-17T20:13:29.281Z,1.00
2023-04-17T20:15:57.333Z,1.00
2023-04-17T20:18:25.593Z,99.90
2023-04-17T20:20:53.790Z,1.00
2023-04-17T20:23:21.789Z,1.00
2023-04-17T20:25:50.509Z,1.00
2023-04-17T20:28:20.026Z,1.00
2023-04-17T20:30:48.234Z,1.00
2023-04-17T20:33:16.417Z,99.90
2023-04-17T20:35:44.542Z,99.90
2023-04-17T20:38:12.769Z,99.90
2023-04-17T20:40:40.887Z,1.00
2023-04-17T20:43:08.922Z,1.00
2023-04-17T20:45:38.565Z,1.00
2023-04-17T20:48:06.776Z,1.00
2023-04-17T20:50:34.992Z,1.00
2023-04-17T20:53:03.093Z,1.00
2023-04-17T20:55:31.176Z,1.00
2023-04-17T20:57:59.241Z,1.00
2023-04-17T21:00:27.470Z,1.00
2023-04-17T21:02:56.966Z,1.00
2023-04-17T21:05:25.236Z,1.00
2023-04-17T21:07:54.321Z,1.00
2023-04-17T21:10:22.315Z,1.00
2023-04-17T21:12:50.425Z,1.00
2023-04-17T21:15:18.718Z,1.00
2023-04-17T21:17:47.749Z,1.00
2023-04-17T21:20:17.488Z,99.90
2023-04-17T21:22:45.630Z,99.90
2023-04-17T21:25:13.657Z,99.90
2023-04-17T21:27:43.681Z,99.90
2023-04-17T21:30:12.154Z,99.90
2023-04-17T21:32:40.760Z,99.90
2023-04-17T21:35:09.974Z,99.90
2023-04-17T21:37:39.468Z,1.00
2023-04-17T21:40:08.703Z,1.00
2023-04-17T21:42:37.107Z,1.00
2023-04-17T21:45:05.833Z,1.00
2023-04-17T21:47:34.940Z,1.00
2023-04-17T21:50:03.171Z,1.00
2023-04-17T21:52:31.242Z,1.00
2023-04-17T21:55:07.283Z,1.00
2023-04-17T21:57:37.472Z,1.00
2023-04-17T22:00:09.884Z,99.90
2023-04-17T22:02:38.138Z,8.80
2023-04-17T22:05:06.845Z,1.00
2023-04-17T22:07:44.002Z,1.00
2023-04-17T22:10:21.147Z,1.00
2023-04-17T22:12:49.212Z,1.00
2023-04-17T22:15:17.413Z,1.00
2023-04-17T22:17:45.598Z,1.00
2023-04-17T22:20:14.131Z,1.00
2023-04-17T22:22:42.283Z,87.40
2023-04-17T22:25:10.832Z,99.90
2023-04-17T22:27:40.598Z,99.90
2023-04-17T22:30:09.346Z,1.00
2023-04-17T22:32:37.749Z,85.70
2023-04-17T22:35:06.593Z,99.90
2023-04-17T22:37:34.697Z,99.90
2023-04-17T22:40:02.734Z,99.90
2023-04-17T22:42:30.772Z,99.90
2023-04-17T22:45:00.526Z,99.90
2023-04-17T22:47:28.629Z,99.90
2023-04-17T22:49:57.640Z,1.00
2023-04-17T22:52:25.675Z,1.00
2023-04-17T22:54:54.495Z,1.00
2023-04-17T22:57:22.546Z,1.00
2023-04-17T22:59:50.642Z,99.90
2023-04-17T23:02:20.036Z,1.00
2023-04-17T23:04:48.209Z,1.00
2023-04-17T23:07:16.310Z,99.90
2023-04-17T23:09:44.826Z,99.90
2023-04-17T23:12:12.822Z,99.90
2023-04-17T23:14:41.012Z,99.90
2023-04-17T23:17:12.149Z,99.90
2023-04-17T23:19:41.616Z,99.90
2023-04-17T23:22:10.774Z,99.90
2023-04-17T23:24:38.972Z,1.00
2023-04-17T23:27:07.057Z,99.90
2023-04-17T23:29:35.170Z,1.00
2023-04-17T23:32:04.476Z,1.00
2023-04-17T23:34:32.525Z,1.00
2023-04-17T23:37:02.516Z,1.00
2023-04-17T23:39:30.758Z,1.00
2023-04-17T23:42:00.488Z,1.00
2023-04-17T23:44:28.694Z,1.00
2023-04-17T23:46:56.918Z,99.90
2023-04-17T23:49:25.029Z,99.90
2023-04-17T23:51:53.266Z,99.90
2023-04-17T23:54:22.755Z,99.90
2023-04-17T23:56:50.873Z,99.90
2023-04-17T23:59:19.162Z,99.90
